Data for 06/22/2009

Time Sea-Level Adjusted Pressure Absolute Pressure Temperature Relative Humidity Dew Point   
(mb) (inHg) (mb) (inHg) (C) (F) (%) (C) (F)
00:05 1012 29.88 841 24.83 12.2 53.9 71 7.2 44.9
00:10 1012 29.88 841 24.83 12.1 53.8 72 7.3 45.2
00:15 1012 29.88 841 24.83 12.1 53.7 73 7.3 45.2
00:20 1012 29.88 841 24.83 11.9 53.3 74 7.4 45.4
00:25 1012 29.88 841 24.83 11.6 52.9 74 7.2 45
00:30 1012 29.88 841 24.83 11.6 52.9 75 7.4 45.3
00:35 1012 29.88 841 24.83 11.4 52.5 77 7.5 45.5
00:40 1012 29.88 841 24.83 11.2 52.2 77 7.4 45.4
00:45 1012 29.88 841 24.83 11.1 52 78 7.4 45.4
00:50 1012 29.88 841 24.83 11.1 51.9 78 7.4 45.3
00:55 1012 29.88 841 24.83 11.2 52.1 79 7.7 45.9
01:00 1012 29.88 841 24.83 10.9 51.6 80 7.7 45.8
01:05 1012 29.88 841 24.83 10.7 51.3 80 7.5 45.5
01:10 1012 29.88 841 24.83 10.8 51.5 79 7.4 45.3
01:15 1012 29.88 841 24.83 10.8 51.4 80 7.5 45.5
01:20 1012 29.88 841 24.83 10.7 51.2 79 7.3 45.1
01:25 1012 29.88 841 24.83 10.6 51.1 79 7.2 44.9
01:30 1012 29.88 841 24.83 10.6 51.2 79 7.1 44.8
01:35 1011 29.85 841 24.83 10.7 51.2 79 7.2 45
01:40 1012 29.88 841 24.83 11 51.7 76 6.9 44.4
01:45 1012 29.88 841 24.83 10.9 51.5 78 7.2 45
01:50 1012 29.88 841 24.83 10.7 51.3 78 7.1 44.8
01:55 1012 29.88 841 24.83 10.7 51.2 77 6.8 44.3
02:00 1012 29.88 841 24.83 10.8 51.4 77 6.9 44.5
02:05 1012 29.88 841 24.83 10.8 51.4 78 7.1 44.7
02:10 1012 29.88 841 24.83 10.8 51.4 77 7 44.6
02:15 1012 29.88 841 24.83 10.8 51.4 76 6.8 44.2
02:20 1012 29.88 841 24.83 10.8 51.4 76 6.8 44.2
02:25 1012 29.88 841 24.83 10.9 51.5 78 7.1 44.8
02:30 1012 29.88 841 24.83 10.7 51.2 79 7.2 45
02:35 1012 29.88 841 24.83 10.4 50.8 80 7.1 44.8
02:40 1012 29.88 841 24.83 10.3 50.6 80 7.1 44.8
02:45 1012 29.88 841 24.83 10.3 50.5 80 7 44.6
02:50 1012 29.88 841 24.83 10.3 50.6 80 7.1 44.7
02:55 1012 29.88 841 24.83 10.4 50.7 79 6.9 44.4
03:00 1012 29.88 841 24.83 10.6 51.1 80 7.4 45.3
03:05 1012 29.88 841 24.83 10.7 51.2 80 7.4 45.3
03:10 1012 29.88 841 24.83 10.7 51.2 80 7.3 45.2
03:15 1012 29.88 841 24.83 10.7 51.2 80 7.4 45.3
03:20 1012 29.88 841 24.83 10.5 50.9 81 7.4 45.2
03:25 1012 29.88 841 24.83 10.4 50.7 81 7.2 45
03:30 1012 29.88 841 24.83 10.3 50.5 82 7.2 45
03:35 1012 29.88 841 24.83 9.9 49.8 84 7.4 45.3
03:40 1012 29.88 841 24.83 9.6 49.3 85 7.2 44.9
03:45 1012 29.88 841 24.83 9.6 49.3 84 7 44.6
03:50 1012 29.88 841 24.83 9.5 49.1 85 7.1 44.8
03:55 1012 29.88 841 24.83 9.4 48.9 85 7 44.5
04:00 1012 29.88 841 24.83 9.4 48.9 84 6.9 44.4
04:05 1012 29.88 841 24.83 9.3 48.7 85 6.9 44.4
04:10 1012 29.88 841 24.83 9.2 48.6 85 6.8 44.3
04:15 1012 29.88 842 24.86 9.3 48.7 85 6.8 44.3
04:20 1012 29.88 841 24.83 9.3 48.8 84 6.8 44.2
04:25 1012 29.88 842 24.86 9.4 49 84 6.9 44.4
04:30 1012 29.88 842 24.86 9.2 48.5 85 6.8 44.2
04:35 1012 29.88 842 24.86 9.1 48.4 85 6.7 44
04:40 1012 29.88 842 24.86 9.3 48.8 84 6.8 44.3
04:45 1013 29.91 842 24.86 9.3 48.8 85 6.9 44.5
04:50 1013 29.91 842 24.86 9.1 48.4 85 6.7 44.1
04:55 1013 29.91 842 24.86 9.1 48.5 85 6.8 44.3
05:00 1013 29.91 842 24.86 9 48.1 87 6.9 44.4
05:05 1013 29.91 842 24.86 8.8 47.9 87 6.8 44.3
05:10 1013 29.91 842 24.86 8.6 47.5 87 6.6 43.9
05:15 1013 29.91 842 24.86 8.6 47.5 87 6.5 43.8
05:20 1013 29.91 842 24.86 8.6 47.5 87 6.5 43.7
05:25 1013 29.91 842 24.86 8.6 47.4 86 6.4 43.6
05:30 1013 29.91 842 24.86 8.7 47.7 84 6.1 43
05:35 1013 29.91 843 24.89 9 48.2 83 6.3 43.3
05:40 1013 29.91 843 24.89 9 48.2 81 5.9 42.6
05:45 1013 29.91 843 24.89 9.2 48.5 77 5.3 41.6
05:50 1014 29.94 843 24.89 9.1 48.5 73 4.5 40.1
05:55 1014 29.94 843 24.89 8.9 48.1 73 4.4 40
06:00 1014 29.94 843 24.89 8.8 47.8 74 4.4 40
06:05 1014 29.94 843 24.89 8.7 47.6 74 4.4 39.9
06:10 1014 29.94 843 24.89 8.6 47.5 75 4.4 39.9
06:15 1014 29.94 843 24.89 8.6 47.5 74 4.3 39.8
06:20 1014 29.94 843 24.89 8.8 47.9 73 4.2 39.6
06:25 1014 29.94 843 24.89 9 48.2 74 4.6 40.3
06:30 1014 29.94 843 24.89 8.6 47.5 76 4.7 40.4
06:35 1014 29.94 844 24.92 8.6 47.5 76 4.6 40.2
06:40 1014 29.94 844 24.92 8.6 47.5 76 4.6 40.3
06:45 1014 29.94 844 24.92 8.7 47.6 73 4.1 39.5
06:50 1014 29.94 844 24.92 8.8 47.9 68 3.2 37.7
06:55 1014 29.94 844 24.92 9.1 48.4 62 2.2 36
07:00 1014 29.94 844 24.92 9.3 48.8 64 2.9 37.2
07:05 1014 29.94 844 24.92 9.3 48.7 63 2.7 36.9
07:10 1014 29.94 844 24.92 9.3 48.7 63 2.7 36.8
07:15 1014 29.94 844 24.92 9.3 48.7 62 2.4 36.4
07:20 1014 29.94 844 24.92 9.5 49.1 62 2.7 36.9
07:25 1015 29.97 844 24.92 9.6 49.2 60 2.3 36.2
07:30 1015 29.97 844 24.92 9.8 49.7 63 3.1 37.5
07:35 1015 29.97 844 24.92 10 50 62 3.1 37.6
07:40 1015 29.97 844 24.92 9.9 49.7 61 2.8 37
07:45 1015 29.97 844 24.92 9.9 49.9 55 1.3 34.3
07:50 1015 29.97 844 24.92 10.1 50.1 58 2.1 35.9
07:55 1015 29.97 844 24.92 10.4 50.7 53 1.2 34.1
08:00 1015 29.97 844 24.92 10.5 51 55 1.9 35.4
08:05 1015 29.97 844 24.92 10.5 50.9 55 1.9 35.5
08:10 1015 29.97 844 24.92 10.7 51.2 51 1 33.8
08:15 1015 29.97 844 24.92 10.8 51.5 51 1.1 34
08:20 1015 29.97 844 24.92 11 51.8 50 1 33.8
08:25 1015 29.97 844 24.92 11.1 52 49 0.8 33.4
08:30 1015 29.97 844 24.92 11.2 52.1 48 0.6 33.1
08:35 1015 29.97 844 24.92 11.1 51.9 48 0.5 32.8
08:40 1015 29.97 845 24.95 11.1 51.9 47 0.2 32.4
08:45 1015 29.97 845 24.95 11.1 51.9 49 0.9 33.6
08:50 1016 30 845 24.95 11.1 51.9 51 1.4 34.4
08:55 1016 30 845 24.95 11.2 52.1 51 1.4 34.5
09:00 1016 30 845 24.95 11.1 52 51 1.5 34.6
09:05 1016 30 845 24.95 11.2 52.2 50 1.1 34
09:10 1016 30 845 24.95 11.3 52.3 50 1.4 34.5
09:15 1016 30 845 24.95 11.3 52.4 51 1.7 35
09:20 1016 30 845 24.95 11.3 52.4 52 2 35.5
09:25 1016 30 845 24.95 11.5 52.6 50 1.4 34.6
09:30 1016 30 845 24.95 11.7 53 50 1.7 35
09:35 1016 30 845 24.95 11.4 52.6 49 1.3 34.3
09:40 1016 30 845 24.95 11.5 52.8 48 0.9 33.5
09:45 1016 30 845 24.95 11.8 53.2 46 0.5 32.9
09:50 1016 30 845 24.95 11.5 52.7 48 0.9 33.5
09:55 1016 30 845 24.95 11.7 53 47 0.8 33.5
10:00 1016 30 845 24.95 11.8 53.3 45 0.5 32.8
10:05 1016 30 845 24.95 11.8 53.2 47 0.8 33.5
10:10 1016 30 845 24.95 12.2 53.9 45 0.6 33.1
10:15 1016 30 845 24.95 12.7 54.8 42 0.2 32.4
10:20 1016 30 845 24.95 13.2 55.7 44 1.2 34.1
10:25 1016 30 845 24.95 13.8 56.8 42 1.2 34.2
10:30 1016 30 845 24.95 13.8 56.8 39 0.1 32.3
10:35 1016 30 845 24.95 14.1 57.3 39 0.5 32.9
10:40 1016 30 845 24.95 13.8 56.8 38 -0.2 31.6
10:45 1016 30 845 24.95 14.2 57.6 38 0.2 32.4
10:50 1016 30 845 24.95 14.2 57.6 38 0 32
10:55 1016 30 845 24.95 14.4 58 36 -0.3 31.5
11:00 1016 30 845 24.95 14.4 57.9 37 0.1 32.1
11:05 1016 30 845 24.95 14.3 57.7 35 -0.7 30.7
11:10 1016 30 845 24.95 14.7 58.5 35 -0.4 31.3
11:15 1016 30 845 24.95 15.1 59.3 34 -0.5 31.1
11:20 1016 30 845 24.95 15.7 60.3 36 0.9 33.5
11:25 1016 30 845 24.95 15.6 60 35 0.1 32.2
11:30 1016 30 845 24.95 14.9 58.9 34 -0.6 30.9
11:35 1016 30 845 24.95 14.6 58.4 34 -0.9 30.5
11:40 1016 30 845 24.95 14.9 58.8 33 -1.1 30
11:45 1016 30 845 24.95 15.2 59.3 34 -0.5 31.1
11:50 1016 30 845 24.95 15.3 59.6 34 -0.5 31.2
11:55 1016 30 845 24.95 15.5 59.9 34 -0.1 31.8
12:00 1016 30 845 24.95 15.7 60.3 36 0.8 33.4
12:05 1016 30 845 24.95 15.3 59.5 36 0.3 32.5
12:10 1016 30 845 24.95 15.7 60.2 34 -0.1 31.8
12:15 1016 30 845 24.95 16.2 61.2 34 0.6 33.1
12:20 1016 30 845 24.95 15.7 60.3 34 0.1 32.2
12:25 1016 30 845 24.95 15.3 59.6 34 -0.3 31.5
12:30 1016 30 845 24.95 16.3 61.3 33 0.1 32.2
12:35 1016 30 845 24.95 16.5 61.7 36 1.4 34.5
12:40 1016 30 845 24.95 15.9 60.7 33 -0.2 31.6
12:45 1016 30 845 24.95 15.6 60 34 -0.2 31.6
12:50 1016 30 845 24.95 14.9 58.9 35 -0.2 31.6
12:55 1016 30 845 24.95 16 60.7 30 -1.7 29
13:00 1016 30 845 24.95 16.5 61.8 28 -1.8 28.8
13:05 1016 30 845 24.95 17.5 63.6 29 -0.5 31.1
13:10 1016 30 845 24.95 17.6 63.6 31 0.4 32.7
13:15 1016 30 845 24.95 17.1 62.8 31 0 32.1
13:20 1016 30 845 24.95 17.9 64.1 30 -0 31.9
13:25 1016 30 845 24.95 18.4 65.2 31 1.1 33.9
13:30 1016 30 845 24.95 17.7 63.8 32 0.8 33.5
13:35 1016 30 845 24.95 17.3 63.1 31 0.1 32.1
13:40 1016 30 845 24.95 16.7 62 32 0.2 32.4
13:45 1016 30 845 24.95 17.1 62.8 32 0.2 32.4
13:50 1016 30 845 24.95 17.3 63.1 31 0.3 32.5
13:55 1016 30 845 24.95 17.2 63 31 0 32
14:00 1015 29.97 845 24.95 16.3 61.3 34 0.5 32.9
14:05 1015 29.97 845 24.95 16.7 62.1 32 0.3 32.5
14:10 1015 29.97 844 24.92 17.7 63.9 31 0.4 32.7
14:15 1015 29.97 844 24.92 17.5 63.5 31 0.1 32.2
14:20 1015 29.97 844 24.92 17.8 64.1 29 -0.5 31
14:25 1015 29.97 844 24.92 18.3 65 28 -0.5 31.1
14:30 1015 29.97 844 24.92 18.3 64.9 30 0.7 33.3
14:35 1015 29.97 844 24.92 18.6 65.5 29 0.3 32.6
14:40 1015 29.97 844 24.92 18.6 65.5 29 0.3 32.6
14:45 1015 29.97 844 24.92 18.9 66 29 0.8 33.5
14:50 1015 29.97 844 24.92 18.9 66 26 -0.8 30.6
14:55 1015 29.97 844 24.92 18.9 66.1 26 -1.1 30.1
15:00 1015 29.97 844 24.92 18.9 66 26 -1 30.2
15:05 1015 29.97 844 24.92 18.1 64.5 28 -0.7 30.7
15:10 1015 29.97 844 24.92 18.5 65.3 27 -0.7 30.7
15:15 1015 29.97 844 24.92 17.7 63.8 29 -0.5 31.1
15:20 1015 29.97 844 24.92 17.8 64.1 26 -1.7 28.9
15:25 1015 29.97 844 24.92 17.6 63.6 27 -1.7 28.9
15:30 1015 29.97 844 24.92 17.7 63.9 26 -1.8 28.8
15:35 1015 29.97 844 24.92 17.9 64.2 27 -1.1 30
15:40 1015 29.97 844 24.92 17 62.6 30 -0.8 30.5
15:45 1015 29.97 844 24.92 16.8 62.2 30 -0.9 30.5
15:50 1015 29.97 844 24.92 17 62.5 28 -1.7 28.9
15:55 1015 29.97 844 24.92 16.8 62.3 29 -1.1 30
16:00 1015 29.97 844 24.92 16.7 62.1 31 -0.2 31.7
16:05 1015 29.97 844 24.92 16.4 61.5 30 -1.2 29.8
16:10 1015 29.97 844 24.92 16.4 61.6 30 -0.9 30.3
16:15 1015 29.97 844 24.92 16.3 61.4 31 -0.8 30.6
16:20 1015 29.97 844 24.92 17.2 63 30 -0.6 31
16:25 1015 29.97 844 24.92 17.8 64 28 -0.7 30.8
16:30 1015 29.97 844 24.92 17.2 63 30 -0.3 31.4
16:35 1015 29.97 844 24.92 16.7 62 31 -0.4 31.3
16:40 1015 29.97 844 24.92 16.4 61.4 37 1.7 35
16:45 1015 29.97 844 24.92 15.9 60.6 38 1.6 34.9
16:50 1015 29.97 844 24.92 15.8 60.5 37 1.2 34.2
16:55 1015 29.97 844 24.92 15.9 60.5 37 1.3 34.4
17:00 1015 29.97 844 24.92 15.5 59.8 38 1.2 34.1
17:05 1015 29.97 844 24.92 16 60.8 38 1.7 35.1
17:10 1015 29.97 844 24.92 16.1 61 40 2.7 36.8
17:15 1015 29.97 844 24.92 15.8 60.4 41 2.6 36.7
17:20 1015 29.97 844 24.92 15.4 59.7 42 2.8 37
17:25 1015 29.97 845 24.95 14.6 58.3 47 3.6 38.4
17:30 1015 29.97 845 24.95 13.5 56.3 49 3 37.4
17:35 1016 30 845 24.95 13.7 56.6 49 3.2 37.8
17:40 1016 30 845 24.95 13.6 56.4 49 3 37.4
17:45 1016 30 845 24.95 13.5 56.2 51 3.6 38.4
17:50 1016 30 845 24.95 13.4 56.1 51 3.5 38.2
17:55 1016 30 845 24.95 13.4 56 51 3.5 38.3
18:00 1016 30 845 24.95 13.4 56 52 3.7 38.7
18:05 1016 30 845 24.95 12.7 54.9 53 3.3 38
18:10 1016 30 845 24.95 12.3 54.2 55 3.6 38.4
18:15 1016 30 845 24.95 12.3 54.1 55 3.5 38.3
18:20 1016 30 845 24.95 12.2 54 56 3.7 38.7
18:25 1016 30 845 24.95 12 53.7 55 3.3 38
18:30 1016 30 845 24.95 11.9 53.5 56 3.6 38.5
18:35 1016 30 845 24.95 11.9 53.4 55 3.3 37.9
18:40 1016 30 846 24.98 12 53.7 50 2 35.6
18:45 1016 30 846 24.98 12 53.6 52 2.5 36.5
18:50 1017 30.03 846 24.98 11.8 53.2 53 2.5 36.5
18:55 1017 30.03 846 24.98 11.4 52.5 58 3.6 38.5
19:00 1017 30.03 846 24.98 10.8 51.5 61 3.7 38.7
19:05 1017 30.03 847 25.01 10.6 51 62 3.7 38.6
19:10 1017 30.03 847 25.01 10.1 50.2 66 4.1 39.5
19:15 1018 30.06 847 25.01 10 49.9 70 4.7 40.5
19:20 1018 30.06 847 25.01 9.7 49.5 76 5.8 42.4
19:25 1018 30.06 847 25.01 9.4 48.9 79 5.9 42.6
19:30 1018 30.06 848 25.04 9.2 48.6 81 6.1 42.9
19:35 1019 30.09 848 25.04 8.9 48 84 6.3 43.3
19:40 1019 30.09 848 25.04 8.7 47.6 81 5.6 42.2
19:45 1019 30.09 848 25.04 8.5 47.2 82 5.5 41.9
19:50 1019 30.09 848 25.04 8.3 47 82 5.4 41.7
19:55 1019 30.09 848 25.04 8.2 46.7 83 5.4 41.8
20:00 1019 30.09 848 25.04 8 46.3 83 5.2 41.3
20:05 1019 30.09 848 25.04 7.7 45.8 84 5.1 41.1
20:10 1019 30.09 848 25.04 7.6 45.7 81 4.6 40.2
20:15 1019 30.09 848 25.04 7.7 45.8 79 4.3 39.8
20:20 1019 30.09 848 25.04 7.7 45.9 79 4.3 39.8
20:25 1019 30.09 848 25.04 7.7 45.8 83 5 41
20:30 1019 30.09 848 25.04 7.7 45.8 83 5 41
20:35 1019 30.09 848 25.04 7.7 45.9 79 4.4 39.9
20:40 1019 30.09 848 25.04 7.8 46 78 4.3 39.7
20:45 1019 30.09 848 25.04 7.8 46.1 78 4.2 39.6
20:50 1019 30.09 848 25.04 7.9 46.2 76 4 39.1
20:55 1019 30.09 848 25.04 7.7 45.9 77 3.9 39
21:00 1019 30.09 848 25.04 7.7 45.9 78 4.1 39.3
21:05 1019 30.09 848 25.04 7.9 46.2 76 4 39.1
21:10 1019 30.09 848 25.04 8 46.5 75 3.8 38.9
21:15 1019 30.09 848 25.04 8 46.4 74 3.6 38.6
21:20 1019 30.09 848 25.04 8 46.3 74 3.6 38.6
21:25 1019 30.09 848 25.04 7.9 46.2 74 3.6 38.5
21:30 1019 30.09 849 25.07 8 46.3 72 3.3 38
21:35 1019 30.09 849 25.07 7.9 46.2 73 3.5 38.2
21:40 1019 30.09 849 25.07 7.9 46.2 71 2.9 37.3
21:45 1019 30.09 849 25.07 8 46.4 69 2.6 36.7
21:50 1020 30.12 849 25.07 8 46.4 71 3.1 37.6
21:55 1020 30.12 849 25.07 7.7 45.9 71 2.8 37.1
22:00 1020 30.12 849 25.07 7.7 45.8 71 2.8 37
22:05 1020 30.12 849 25.07 7.6 45.7 73 3.2 37.7
22:10 1020 30.12 849 25.07 7.4 45.3 76 3.4 38.1
22:15 1020 30.12 849 25.07 7.2 44.9 77 3.4 38.2
22:20 1020 30.12 849 25.07 7 44.6 78 3.5 38.2
22:25 1020 30.12 849 25.07 6.9 44.3 79 3.5 38.2
22:30 1020 30.12 849 25.07 6.7 44.1 80 3.6 38.4
22:35 1020 30.12 849 25.07 6.5 43.6 81 3.5 38.3
22:40 1020 30.12 849 25.07 6.2 43.1 82 3.3 38
22:45 1020 30.12 849 25.07 6.2 43.1 81 3.2 37.8
22:50 1020 30.12 850 25.1 6.2 43.1 82 3.3 37.9
22:55 1020 30.12 850 25.1 6.1 43 85 3.7 38.6
23:00 1020 30.12 850 25.1 5.9 42.6 86 3.7 38.7
23:05 1021 30.15 850 25.1 5.7 42.3 87 3.7 38.7
23:10 1021 30.15 850 25.1 5.7 42.2 87 3.6 38.5
23:15 1021 30.15 850 25.1 5.7 42.2 86 3.6 38.5
23:20 1021 30.15 850 25.1 5.8 42.4 85 3.4 38.1
23:25 1021 30.15 850 25.1 6 42.7 83 3.3 38
23:30 1021 30.15 850 25.1 6.1 43 81 3.1 37.6
23:35 1021 30.15 850 25.1 6.2 43.1 82 3.3 37.9
23:40 1021 30.15 850 25.1 6.1 42.9 83 3.3 38
23:45 1021 30.15 850 25.1 6.1 42.9 83 3.4 38.2
23:50 1021 30.15 850 25.1 6 42.8 84 3.4 38.2
23:55 1021 30.15 850 25.1 6 42.7 82 3.1 37.6
24:00 1021 30.15 850 25.1 5.9 42.7 83 3.3 37.9